createdAt,value
2022-08-11T00:00:50.120Z,54.91
2022-08-11T00:04:21.743Z,55.02
2022-08-11T00:07:52.741Z,55.08
2022-08-11T00:11:22.970Z,55.27
2022-08-11T00:15:03.036Z,55.33
2022-08-11T00:18:31.963Z,55.45
2022-08-11T00:22:05.070Z,55.54
2022-08-11T00:25:39.506Z,55.70
2022-08-11T00:29:16.400Z,55.96
2022-08-11T00:32:46.904Z,56.06
2022-08-11T00:36:24.857Z,56.18
2022-08-11T00:39:55.833Z,56.36
2022-08-11T00:43:35.853Z,56.60
2022-08-11T00:47:17.023Z,56.75
2022-08-11T00:50:54.256Z,56.88
2022-08-11T00:54:52.297Z,56.92
2022-08-11T00:58:50.658Z,57.05
2022-08-11T01:02:27.516Z,57.24
2022-08-11T01:06:38.102Z,57.35
2022-08-11T01:10:39.615Z,57.43
2022-08-11T01:14:34.227Z,57.51
2022-08-11T01:18:38.903Z,57.63
2022-08-11T01:22:31.283Z,57.58
2022-08-11T01:26:37.847Z,57.78
2022-08-11T01:30:46.245Z,57.90
2022-08-11T01:34:38.792Z,57.99
2022-08-11T01:38:58.053Z,58.13
2022-08-11T01:43:15.555Z,58.16
2022-08-11T01:46:48.694Z,58.34
2022-08-11T01:50:25.769Z,58.47
2022-08-11T01:54:03.472Z,58.52
2022-08-11T01:57:44.741Z,58.74
2022-08-11T02:01:28.136Z,58.89
2022-08-11T02:04:58.709Z,58.77
2022-08-11T02:08:46.843Z,58.90
2022-08-11T02:12:33.827Z,59.03
2022-08-11T02:16:12.119Z,59.07
2022-08-11T02:20:08.795Z,59.16
2022-08-11T02:24:05.912Z,59.31
2022-08-11T02:27:47.315Z,59.39
2022-08-11T02:32:25.229Z,59.38
2022-08-11T02:35:49.500Z,59.56
2022-08-11T02:39:20.077Z,59.63
2022-08-11T02:43:06.165Z,59.69
2022-08-11T02:46:43.120Z,59.78
2022-08-11T02:50:21.293Z,59.88
2022-08-11T02:53:58.308Z,59.98
2022-08-11T02:57:35.128Z,60.20
2022-08-11T03:01:14.828Z,60.21
2022-08-11T03:04:57.211Z,60.19
2022-08-11T03:08:37.999Z,60.36
2022-08-11T03:12:29.377Z,60.42
2022-08-11T03:16:29.751Z,60.65
2022-08-11T03:20:07.834Z,60.77
2022-08-11T03:23:51.456Z,60.72
2022-08-11T03:27:37.075Z,60.76
2022-08-11T03:31:25.125Z,60.82
2022-08-11T03:34:55.372Z,60.89
2022-08-11T03:38:30.599Z,61.05
2022-08-11T03:42:12.249Z,61.10
2022-08-11T03:45:57.746Z,61.19
2022-08-11T03:49:39.657Z,61.11
2022-08-11T03:53:16.898Z,61.34
2022-08-11T03:57:25.562Z,61.42
2022-08-11T04:01:23.011Z,61.58
2022-08-11T04:05:33.978Z,61.68
2022-08-11T04:09:25.696Z,61.78
2022-08-11T04:13:53.159Z,61.85
2022-08-11T04:17:54.364Z,61.99
2022-08-11T04:21:51.316Z,62.10
2022-08-11T04:25:58.602Z,62.21
2022-08-11T04:30:03.470Z,62.28
2022-08-11T04:33:43.839Z,62.28
2022-08-11T04:37:45.071Z,62.33
2022-08-11T04:42:12.827Z,62.35
2022-08-11T04:46:07.933Z,62.52
2022-08-11T04:50:23.374Z,62.48
2022-08-11T04:54:19.538Z,62.55
2022-08-11T04:58:12.797Z,62.68
2022-08-11T05:02:16.727Z,62.79
2022-08-11T05:06:13.016Z,62.90
2022-08-11T05:10:05.962Z,62.95
2022-08-11T05:13:54.194Z,63.03
2022-08-11T05:17:54.337Z,63.07
2022-08-11T05:21:44.919Z,63.10
2022-08-11T05:26:42.618Z,63.29
2022-08-11T05:30:01.784Z,63.24
2022-08-11T05:33:53.543Z,63.24
2022-08-11T05:37:27.420Z,63.25
2022-08-11T05:41:16.179Z,63.10
2022-08-11T05:45:04.565Z,63.18
2022-08-11T05:49:03.131Z,63.04
2022-08-11T05:52:55.372Z,62.95
2022-08-11T05:56:25.743Z,62.94
2022-08-11T06:00:02.879Z,63.00
2022-08-11T06:03:57.638Z,63.04
2022-08-11T06:07:47.185Z,62.85
2022-08-11T06:11:19.738Z,62.83
2022-08-11T06:15:09.820Z,62.92
2022-08-11T06:18:38.964Z,62.76
2022-08-11T06:22:10.151Z,62.92
2022-08-11T06:25:39.768Z,62.70
2022-08-11T06:29:08.561Z,62.76
2022-08-11T06:32:37.996Z,62.83
2022-08-11T06:36:18.074Z,62.65
2022-08-11T06:39:57.261Z,62.61
2022-08-11T06:43:32.447Z,62.36
2022-08-11T06:47:07.406Z,62.20
2022-08-11T06:50:53.803Z,62.15
2022-08-11T06:54:22.691Z,61.98
2022-08-11T06:58:09.729Z,61.87
2022-08-11T07:01:50.212Z,61.62
2022-08-11T07:05:24.915Z,61.53
2022-08-11T07:09:52.513Z,61.35
2022-08-11T07:13:45.290Z,61.21
2022-08-11T07:17:37.870Z,60.96
2022-08-11T07:22:01.477Z,60.85
2022-08-11T07:25:49.181Z,60.76
2022-08-11T07:29:18.035Z,60.51
2022-08-11T07:32:52.073Z,60.35
2022-08-11T07:36:21.704Z,60.22
2022-08-11T07:39:57.342Z,60.13
2022-08-11T07:43:24.977Z,60.02
2022-08-11T07:47:14.397Z,59.67
2022-08-11T07:51:03.457Z,59.25
2022-08-11T07:54:33.466Z,59.00
2022-08-11T07:58:20.426Z,58.83
2022-08-11T08:02:08.600Z,58.45
2022-08-11T08:05:54.679Z,58.13
2022-08-11T08:09:40.756Z,58.04
2022-08-11T08:13:26.758Z,57.58
2022-08-11T08:17:12.249Z,57.31
2022-08-11T08:20:45.024Z,57.11
2022-08-11T08:24:13.561Z,56.73
2022-08-11T08:27:43.863Z,56.46
2022-08-11T08:31:11.649Z,56.13
2022-08-11T08:34:44.893Z,56.02
2022-08-11T08:38:12.853Z,55.82
2022-08-11T08:41:43.122Z,55.70
2022-08-11T08:45:16.817Z,55.31
2022-08-11T08:48:48.085Z,54.69
2022-08-11T08:52:26.492Z,54.57
2022-08-11T08:56:03.835Z,54.18
2022-08-11T08:59:47.607Z,54.12
2022-08-11T09:07:14.301Z,53.72
2022-08-11T09:10:45.637Z,53.41
2022-08-11T09:14:15.302Z,53.17
2022-08-11T09:17:46.033Z,52.91
2022-08-11T09:21:45.418Z,52.64
2022-08-11T09:25:24.518Z,52.35
2022-08-11T09:28:54.622Z,52.25
2022-08-11T09:32:25.537Z,52.06
2022-08-11T09:35:54.770Z,51.55
2022-08-11T09:39:43.261Z,51.35
2022-08-11T09:43:34.051Z,51.37
2022-08-11T09:47:02.188Z,50.95
2022-08-11T09:50:32.453Z,50.58
2022-08-11T09:54:06.816Z,49.94
2022-08-11T09:57:55.196Z,49.96
2022-08-11T10:01:32.542Z,49.54
2022-08-11T10:05:17.132Z,49.08
2022-08-11T10:08:51.199Z,48.73
2022-08-11T10:12:27.835Z,48.49
2022-08-11T10:16:15.874Z,47.75
2022-08-11T10:20:04.742Z,47.65
2022-08-11T10:24:01.187Z,47.21
2022-08-11T10:28:17.557Z,47.08
2022-08-11T10:31:57.829Z,46.95
2022-08-11T10:35:28.996Z,46.49
2022-08-11T10:38:57.945Z,46.33
2022-08-11T10:42:57.390Z,46.05
2022-08-11T10:46:46.002Z,45.98
2022-08-11T10:50:34.591Z,45.50
2022-08-11T10:54:24.353Z,45.37
2022-08-11T10:58:10.210Z,45.16
2022-08-11T11:01:41.273Z,45.21
2022-08-11T11:05:18.384Z,44.27
2022-08-11T11:09:03.697Z,44.06
2022-08-11T11:12:55.862Z,43.76
2022-08-11T11:16:45.735Z,43.77
2022-08-11T11:20:37.022Z,43.88
2022-08-11T11:24:19.883Z,43.08
2022-08-11T11:28:05.921Z,43.27
2022-08-11T11:31:47.978Z,43.14
2022-08-11T11:35:39.824Z,42.82
2022-08-11T11:39:09.992Z,42.38
2022-08-11T11:42:41.416Z,42.05
2022-08-11T11:46:12.166Z,42.30
2022-08-11T11:49:46.422Z,41.89
2022-08-11T11:53:14.509Z,41.62
2022-08-11T11:56:47.148Z,41.51
2022-08-11T12:00:43.475Z,41.55
2022-08-11T12:04:13.090Z,41.01
2022-08-11T12:08:10.417Z,40.35
2022-08-11T12:11:58.413Z,40.24
2022-08-11T12:16:04.306Z,39.63
2022-08-11T12:19:15.266Z,39.19
2022-08-11T12:23:03.845Z,38.58
2022-08-11T12:26:54.412Z,38.36
2022-08-11T12:30:46.590Z,38.11
2022-08-11T12:34:17.680Z,37.99
2022-08-11T12:37:48.345Z,37.30
2022-08-11T12:41:35.694Z,37.02
2022-08-11T12:45:28.064Z,36.66
2022-08-11T12:49:21.009Z,36.00
2022-08-11T12:52:57.844Z,35.95
2022-08-11T12:56:45.386Z,35.56
2022-08-11T13:00:32.921Z,35.49
2022-08-11T13:04:18.377Z,35.41
2022-08-11T13:07:50.840Z,34.96
2022-08-11T13:11:55.840Z,34.99
2022-08-11T13:15:27.528Z,34.53
2022-08-11T13:19:00.464Z,34.24
2022-08-11T13:22:32.621Z,33.52
2022-08-11T13:26:03.488Z,33.62
2022-08-11T13:29:31.871Z,33.61
2022-08-11T13:33:00.128Z,33.28
2022-08-11T13:36:29.202Z,33.36
2022-08-11T13:39:56.727Z,32.98
2022-08-11T13:43:25.815Z,32.76
2022-08-11T13:46:53.746Z,32.48
2022-08-11T13:50:43.757Z,31.98
2022-08-11T13:54:14.973Z,31.47
2022-08-11T13:58:18.327Z,31.41
2022-08-11T14:02:20.482Z,31.05
2022-08-11T14:05:32.265Z,31.26
2022-08-11T14:09:02.654Z,30.95
2022-08-11T14:12:50.545Z,30.84
2022-08-11T14:16:28.774Z,30.54
2022-08-11T14:20:38.352Z,30.17
2022-08-11T14:24:12.879Z,29.91
2022-08-11T14:28:31.528Z,29.87
2022-08-11T14:31:35.258Z,29.84
2022-08-11T14:35:02.538Z,29.81
2022-08-11T14:38:30.837Z,29.40
2022-08-11T14:42:32.764Z,29.26
2022-08-11T14:46:20.561Z,29.05
2022-08-11T14:49:56.068Z,28.86
2022-08-11T14:53:35.739Z,28.65
2022-08-11T14:57:03.939Z,28.39
2022-08-11T15:00:32.803Z,28.25
2022-08-11T15:04:29.725Z,27.93
2022-08-11T15:07:50.880Z,27.79
2022-08-11T15:11:40.951Z,21.88
2022-08-11T15:15:30.739Z,27.43
2022-08-11T15:18:59.655Z,27.33
2022-08-11T15:22:43.885Z,27.13
2022-08-11T15:26:14.772Z,27.01
2022-08-11T15:30:01.022Z,27.03
2022-08-11T15:33:50.428Z,27.12
2022-08-11T15:37:32.249Z,26.98
2022-08-11T15:41:19.703Z,26.88
2022-08-11T15:45:11.986Z,27.05
2022-08-11T15:48:48.677Z,27.08
2022-08-11T15:52:21.272Z,27.18
2022-08-11T15:55:49.806Z,27.21
2022-08-11T15:59:41.619Z,27.28
2022-08-11T16:03:54.468Z,27.37
2022-08-11T16:07:26.994Z,27.55
2022-08-11T16:10:58.462Z,27.66
2022-08-11T16:14:44.900Z,27.87
2022-08-11T16:18:18.450Z,27.87
2022-08-11T16:21:47.231Z,28.08
2022-08-11T16:27:04.288Z,28.05
2022-08-11T16:29:08.340Z,28.31
2022-08-11T16:32:38.649Z,28.48
2022-08-11T16:36:25.901Z,28.32
2022-08-11T16:39:55.670Z,28.66
2022-08-11T16:43:47.976Z,28.33
2022-08-11T16:48:02.596Z,28.57
2022-08-11T16:51:10.175Z,29.00
2022-08-11T16:54:38.376Z,28.86
2022-08-11T16:58:29.904Z,28.92
2022-08-11T17:02:04.918Z,29.09
2022-08-11T17:05:55.012Z,29.14
2022-08-11T17:09:45.298Z,29.08
2022-08-11T17:13:14.587Z,29.22
2022-08-11T17:16:44.860Z,29.25
2022-08-11T17:20:41.623Z,29.45
2022-08-11T17:24:15.571Z,29.64
2022-08-11T17:27:45.591Z,29.83
2022-08-11T17:31:33.284Z,29.88
2022-08-11T17:35:21.871Z,30.22
2022-08-11T17:38:52.847Z,30.41
2022-08-11T17:42:49.164Z,30.59
2022-08-11T17:46:34.745Z,30.73
2022-08-11T17:50:09.322Z,30.93
2022-08-11T17:54:24.779Z,31.11
2022-08-11T17:58:11.440Z,31.37
2022-08-11T18:01:44.449Z,31.61
2022-08-11T18:05:14.605Z,31.72
2022-08-11T18:09:05.200Z,31.81
2022-08-11T18:12:49.610Z,32.15
2022-08-11T18:16:37.084Z,32.26
2022-08-11T18:20:23.805Z,32.32
2022-08-11T18:24:12.335Z,32.63
2022-08-11T18:28:04.637Z,32.99
2022-08-11T18:31:56.110Z,33.26
2022-08-11T18:35:43.300Z,33.55
2022-08-11T18:39:33.085Z,33.67
2022-08-11T18:43:29.207Z,33.98
2022-08-11T18:47:15.924Z,34.27
2022-08-11T18:51:30.935Z,34.40
2022-08-11T18:55:14.701Z,34.86
2022-08-11T18:59:05.876Z,35.34
2022-08-11T19:03:00.131Z,35.53
2022-08-11T19:06:48.814Z,35.66
2022-08-11T19:10:36.747Z,36.02
2022-08-11T19:14:24.185Z,36.19
2022-08-11T19:18:13.622Z,36.14
2022-08-11T19:22:01.666Z,36.50
2022-08-11T19:25:49.741Z,36.58
2022-08-11T19:30:04.718Z,36.81
2022-08-11T19:34:00.096Z,37.10
2022-08-11T19:37:53.049Z,37.36
2022-08-11T19:41:52.159Z,37.59
2022-08-11T19:45:42.805Z,37.93
2022-08-11T19:49:32.890Z,38.17
2022-08-11T19:53:18.110Z,38.39
2022-08-11T19:57:04.600Z,38.57
2022-08-11T20:00:51.785Z,38.84
2022-08-11T20:04:37.007Z,39.05
2022-08-11T20:08:24.392Z,39.26
2022-08-11T20:12:12.679Z,39.48
2022-08-11T20:16:00.708Z,39.74
2022-08-11T20:19:55.406Z,39.92
2022-08-11T20:23:43.427Z,40.06
2022-08-11T20:27:30.979Z,40.27
2022-08-11T20:31:25.425Z,40.48
2022-08-11T20:35:13.481Z,40.66
2022-08-11T20:38:59.871Z,40.83
2022-08-11T20:42:49.687Z,41.03
2022-08-11T20:46:38.083Z,41.18
2022-08-11T20:50:26.983Z,41.44
2022-08-11T20:54:17.091Z,41.47
2022-08-11T20:58:26.434Z,41.74
2022-08-11T21:02:17.442Z,41.87
2022-08-11T21:06:08.959Z,42.11
2022-08-11T21:10:09.607Z,42.17
2022-08-11T21:13:59.360Z,42.30
2022-08-11T21:18:01.040Z,42.47
2022-08-11T21:21:55.615Z,42.60
2022-08-11T21:25:46.572Z,42.77
2022-08-11T21:29:33.439Z,42.90
2022-08-11T21:33:22.150Z,43.07
2022-08-11T21:37:11.620Z,43.22
2022-08-11T21:40:58.864Z,43.36
2022-08-11T21:44:44.565Z,43.53
2022-08-11T21:48:30.457Z,43.70
2022-08-11T21:52:14.569Z,43.98
2022-08-11T21:56:00.216Z,44.13
2022-08-11T22:00:07.276Z,44.35
2022-08-11T22:03:55.540Z,44.62
2022-08-11T22:07:42.602Z,44.78
2022-08-11T22:11:32.833Z,44.85
2022-08-11T22:15:22.472Z,45.14
2022-08-11T22:19:09.795Z,45.48
2022-08-11T22:22:59.735Z,45.69
2022-08-11T22:26:48.306Z,45.91
2022-08-11T22:30:34.248Z,46.08
2022-08-11T22:34:19.197Z,46.25
2022-08-11T22:38:05.954Z,46.39
2022-08-11T22:41:52.027Z,46.53
2022-08-11T22:45:37.067Z,46.71
2022-08-11T22:49:23.775Z,47.01
2022-08-11T22:53:14.120Z,47.08
2022-08-11T22:56:59.417Z,47.29
2022-08-11T23:00:45.163Z,47.41
2022-08-11T23:04:31.575Z,47.55
2022-08-11T23:08:18.443Z,47.74
2022-08-11T23:12:06.565Z,47.84
2022-08-11T23:15:55.136Z,47.99
2022-08-11T23:20:01.687Z,48.18
2022-08-11T23:23:49.958Z,48.33
2022-08-11T23:27:35.165Z,48.50
2022-08-11T23:31:21.357Z,48.61
2022-08-11T23:35:38.047Z,48.65
2022-08-11T23:39:16.892Z,48.82
2022-08-11T23:43:04.434Z,49.03
2022-08-11T23:46:50.648Z,49.12
2022-08-11T23:50:36.442Z,49.30
2022-08-11T23:54:22.954Z,49.53
2022-08-11T23:58:07.698Z,49.79
